Time;durP1;ratioP1;P1;durP2;ratioP2;P2;SDS_P1;SDS_P2;PMS_P1;PMS_P2;Temp;Humidity;BMP_temperature;BMP_pressure;BME280_temperature;BME280_humidity;BME280_pressure;Samples;Min_cycle;Max_cycle;Signal;HPM_P1;HPM_P2
2022/08/05 00:01:45;;;;;;;18.70;10.25;;;;;;;18.61;100.00;101114.88;5063865;28;20068;-79
2022/08/05 00:04:13;;;;;;;15.35;8.98;;;;;;;18.58;100.00;101109.66;5078639;28;20032;-79
2022/08/05 00:06:39;;;;;;;18.60;9.45;;;;;;;18.55;100.00;101108.97;5096678;28;20088;-79
2022/08/05 00:09:04;;;;;;;19.30;10.23;;;;;;;18.67;100.00;101108.66;5079317;28;20100;-80
2022/08/05 00:11:30;;;;;;;21.90;10.13;;;;;;;18.67;100.00;101105.91;5101238;28;20020;-80
2022/08/05 00:13:57;;;;;;;14.70;9.25;;;;;;;18.53;100.00;101105.50;5078452;28;20042;-79
2022/08/05 00:16:23;;;;;;;16.45;9.90;;;;;;;18.63;100.00;101099.81;5046677;28;20415;-79
2022/08/05 00:18:49;;;;;;;13.52;9.18;;;;;;;18.67;100.00;101101.22;5079986;28;20108;-79
2022/08/05 00:21:16;;;;;;;21.40;9.45;;;;;;;18.65;100.00;101107.97;5098768;28;20040;-79
2022/08/05 00:23:44;;;;;;;17.35;9.60;;;;;;;18.60;100.00;101113.16;5081919;28;20028;-78
2022/08/05 00:26:11;;;;;;;14.38;9.20;;;;;;;18.51;100.00;101109.47;5079058;28;20048;-78
2022/08/05 00:28:38;;;;;;;14.63;8.57;;;;;;;18.55;100.00;101113.66;5060772;28;20028;-79
2022/08/05 00:31:06;;;;;;;15.80;9.93;;;;;;;18.60;100.00;101102.06;5099254;28;20618;-80
2022/08/05 00:33:34;;;;;;;23.98;11.32;;;;;;;18.66;100.00;101101.38;5099517;28;20028;-79
2022/08/05 00:36:02;;;;;;;15.52;9.57;;;;;;;18.52;100.00;101094.59;5072873;28;20032;-80
2022/08/05 00:38:28;;;;;;;20.70;9.52;;;;;;;18.50;100.00;101091.13;5048766;28;20036;-80
2022/08/05 00:40:57;;;;;;;18.15;9.85;;;;;;;18.46;100.00;101081.38;5063819;28;20024;-80
2022/08/05 00:43:24;;;;;;;17.20;10.85;;;;;;;18.50;100.00;101093.88;5080981;28;20028;-80
2022/08/05 00:45:50;;;;;;;22.17;10.35;;;;;;;18.42;100.00;101099.41;5078618;28;20036;-79
2022/08/05 00:48:21;;;;;;;17.52;10.35;;;;;;;18.59;100.00;101092.00;5069930;28;20028;-79
2022/08/05 00:50:49;;;;;;;20.73;10.68;;;;;;;18.61;100.00;101096.34;5098485;28;20036;-79
2022/08/05 00:53:19;;;;;;;15.65;10.48;;;;;;;18.60;100.00;101096.53;5076731;28;20032;-79
2022/08/05 00:55:45;;;;;;;17.40;10.80;;;;;;;18.67;100.00;101089.25;5059379;28;20028;-79
2022/08/05 00:58:15;;;;;;;14.82;10.65;;;;;;;18.49;100.00;101075.50;5061387;28;20032;-78
2022/08/05 01:00:46;;;;;;;17.35;11.02;;;;;;;18.49;100.00;101084.69;5096675;28;20031;-79
2022/08/05 01:03:15;;;;;;;21.55;11.32;;;;;;;18.47;100.00;101081.22;5059122;28;20036;-78
2022/08/05 01:05:41;;;;;;;14.77;9.88;;;;;;;18.57;100.00;101092.16;5075919;28;20093;-78
2022/08/05 01:08:06;;;;;;;16.65;10.43;;;;;;;18.52;100.00;101067.72;5096031;28;20032;-78
2022/08/05 01:10:51;;;;;;;18.70;12.05;;;;;;;18.58;100.00;101073.59;5048170;28;20367;-79
2022/08/05 01:13:30;;;;;;;21.45;11.88;;;;;;;18.52;100.00;101077.94;5067275;28;20032;-78
2022/08/05 01:16:00;;;;;;;20.10;11.68;;;;;;;18.49;100.00;101081.91;5093773;28;20081;-78
2022/08/05 01:18:32;;;;;;;15.70;10.10;;;;;;;18.48;100.00;101077.41;5073603;28;20024;-78
2022/08/05 01:21:11;;;;;;;15.88;10.77;;;;;;;18.64;100.00;101093.22;5096611;28;20032;-79
2022/08/05 01:24:01;;;;;;;17.17;10.90;;;;;;;18.51;100.00;101096.50;5096443;28;20040;-81
2022/08/05 01:26:46;;;;;;;17.17;11.30;;;;;;;18.49;100.00;101112.41;5081075;28;20063;-79
2022/08/05 01:29:18;;;;;;;17.05;11.13;;;;;;;18.58;100.00;101129.97;5096824;28;20081;-78
2022/08/05 01:31:51;;;;;;;18.92;11.18;;;;;;;18.60;100.00;101138.97;5078899;28;20105;-78
2022/08/05 01:34:25;;;;;;;18.85;11.63;;;;;;;18.55;100.00;101147.78;5080042;28;20031;-79
2022/08/05 01:37:02;;;;;;;15.38;11.23;;;;;;;18.63;100.00;101148.88;5079833;28;20032;-78
2022/08/05 01:39:34;;;;;;;20.50;9.95;;;;;;;18.61;100.00;101162.91;5059642;28;20045;-79
2022/08/05 01:42:02;;;;;;;16.73;11.10;;;;;;;18.57;100.00;101166.19;5079443;28;20055;-79
2022/08/05 01:44:29;;;;;;;15.35;10.02;;;;;;;18.50;100.00;101180.72;5072436;28;20484;-80
2022/08/05 01:47:00;;;;;;;19.35;12.20;;;;;;;18.59;100.00;101191.84;5076405;28;20028;-79
2022/08/05 01:49:29;;;;;;;17.02;11.15;;;;;;;18.53;100.00;101188.69;5070682;28;20100;-79
2022/08/05 01:51:59;;;;;;;17.10;11.50;;;;;;;18.60;100.00;101207.47;5059157;28;20025;-80
2022/08/05 01:54:38;;;;;;;17.15;11.82;;;;;;;18.74;100.00;101209.59;5065060;28;20055;-79
2022/08/05 01:57:08;;;;;;;18.60;11.10;;;;;;;18.66;100.00;101207.66;5069806;28;20048;-79
2022/08/05 01:59:39;;;;;;;20.83;12.68;;;;;;;18.65;100.00;101211.47;5067576;28;20473;-78
2022/08/05 02:02:05;;;;;;;17.27;11.60;;;;;;;18.52;100.00;101209.13;5073934;28;20052;-79
2022/08/05 02:04:35;;;;;;;23.92;11.35;;;;;;;18.46;100.00;101215.38;5071335;28;20116;-78
2022/08/05 02:07:01;;;;;;;18.48;12.98;;;;;;;18.49;100.00;101209.47;5076039;28;20036;-79
2022/08/05 02:09:30;;;;;;;16.33;12.15;;;;;;;18.56;100.00;101179.16;5075727;28;20037;-79
2022/08/05 02:12:08;;;;;;;23.02;12.63;;;;;;;18.46;100.00;101146.03;5075317;28;20028;-79
2022/08/05 02:15:01;;;;;;;20.38;11.45;;;;;;;18.41;100.00;101125.38;5076527;28;20036;-79
2022/08/05 02:17:34;;;;;;;19.90;11.52;;;;;;;18.33;100.00;101104.03;5074283;28;20032;-79
2022/08/05 02:20:05;;;;;;;24.27;12.63;;;;;;;18.36;100.00;101071.31;5047789;28;20111;-79
2022/08/05 02:22:58;;;;;;;17.40;11.80;;;;;;;18.30;100.00;101113.56;5055972;28;20039;-78
2022/08/05 02:25:34;;;;;;;22.73;12.57;;;;;;;18.31;100.00;101164.31;5076550;28;20120;-79
2022/08/05 02:28:03;;;;;;;18.98;12.05;;;;;;;18.19;100.00;101172.91;5076219;28;20032;-78
2022/08/05 02:30:41;;;;;;;15.90;10.73;;;;;;;18.25;100.00;101143.69;5073902;28;20088;-79
2022/08/05 02:33:10;;;;;;;22.92;11.68;;;;;;;18.16;100.00;101123.34;5066118;28;20060;-78
2022/08/05 02:35:37;;;;;;;21.00;11.48;;;;;;;18.17;100.00;101119.53;5069618;28;20463;-79
2022/08/05 02:38:06;;;;;;;22.77;10.85;;;;;;;18.12;100.00;101126.63;5055190;28;20440;-79
2022/08/05 02:40:40;;;;;;;18.85;12.07;;;;;;;18.14;100.00;101119.88;5075101;28;20067;-79
2022/08/05 02:43:11;;;;;;;21.45;10.43;;;;;;;18.03;100.00;101125.69;5077845;28;20025;-80
2022/08/05 02:45:41;;;;;;;21.45;11.75;;;;;;;18.14;100.00;101133.72;5076774;28;20442;-78
2022/08/05 02:48:08;;;;;;;18.80;10.38;;;;;;;18.10;100.00;101139.75;5061555;28;20151;-80
2022/08/05 02:50:36;;;;;;;21.00;10.93;;;;;;;18.09;100.00;101138.91;5079893;28;20760;-79
2022/08/05 02:53:05;;;;;;;16.52;10.73;;;;;;;18.10;100.00;101148.97;5047960;28;20044;-79
2022/08/05 02:55:31;;;;;;;16.10;10.02;;;;;;;18.07;100.00;101156.72;5075706;28;20438;-80
2022/08/05 02:57:59;;;;;;;19.83;11.38;;;;;;;18.05;100.00;101158.78;5081496;28;20051;-79
2022/08/05 03:00:26;;;;;;;20.10;10.90;;;;;;;17.98;100.00;101158.56;5072703;28;20032;-80
2022/08/05 03:02:57;;;;;;;18.67;11.40;;;;;;;18.08;100.00;101158.47;5081642;28;20033;-79
2022/08/05 03:05:23;;;;;;;26.55;11.90;;;;;;;18.03;100.00;101147.00;5079033;28;20059;-80
2022/08/05 03:07:49;;;;;;;20.67;10.70;;;;;;;18.00;100.00;101132.44;5060425;28;20032;-80
2022/08/05 03:10:15;;;;;;;19.80;11.85;;;;;;;17.94;100.00;101112.84;5058516;28;20047;-80
2022/08/05 03:12:42;;;;;;;27.27;11.57;;;;;;;17.94;100.00;101097.09;5076582;28;20094;-80
2022/08/05 03:15:12;;;;;;;24.23;11.70;;;;;;;17.83;100.00;101092.63;5047774;28;20029;-80
2022/08/05 03:17:40;;;;;;;26.98;12.13;;;;;;;17.86;100.00;101099.75;5077618;28;20052;-80
2022/08/05 03:20:06;;;;;;;24.30;12.20;;;;;;;17.80;100.00;101103.19;5047094;28;20411;-80
2022/08/05 03:22:32;;;;;;;19.92;11.55;;;;;;;17.87;100.00;101112.59;5074561;28;20052;-80
2022/08/05 03:25:00;;;;;;;23.00;12.35;;;;;;;17.80;100.00;101112.34;5074589;28;20078;-80
2022/08/05 03:27:26;;;;;;;27.20;12.23;;;;;;;17.86;100.00;101116.38;5068160;28;20032;-80
2022/08/05 03:29:52;;;;;;;22.80;12.38;;;;;;;17.93;100.00;101127.72;5077338;28;20024;-80
2022/08/05 03:32:18;;;;;;;24.15;13.20;;;;;;;17.92;100.00;101134.28;5072605;28;20043;-79
2022/08/05 03:34:44;;;;;;;19.15;11.85;;;;;;;17.94;100.00;101132.25;5054645;28;20093;-79
2022/08/05 03:37:11;;;;;;;18.90;11.63;;;;;;;17.85;100.00;101128.50;5071609;28;20048;-79
2022/08/05 03:39:37;;;;;;;25.05;12.35;;;;;;;17.82;100.00;101120.50;5073912;28;20105;-79
2022/08/05 03:42:05;;;;;;;26.30;10.90;;;;;;;17.82;100.00;101129.69;5078723;28;20033;-80
2022/08/05 03:44:30;;;;;;;18.73;9.80;;;;;;;17.68;100.00;101129.41;5077157;28;20035;-79
2022/08/05 03:46:56;;;;;;;18.55;9.13;;;;;;;17.68;100.00;101133.06;5077992;28;20048;-79
2022/08/05 03:49:23;;;;;;;18.17;10.25;;;;;;;17.73;100.00;101138.97;5061207;28;20043;-78
2022/08/05 03:52:01;;;;;;;16.33;10.32;;;;;;;17.70;100.00;101139.28;5044664;28;20036;-79
2022/08/05 03:54:47;;;;;;;20.45;10.15;;;;;;;17.73;100.00;101144.50;5079229;28;20020;-80
2022/08/05 03:57:17;;;;;;;18.70;9.57;;;;;;;17.57;100.00;101150.78;5075045;28;20103;-80
2022/08/05 03:59:48;;;;;;;20.33;10.98;;;;;;;17.67;100.00;101166.44;5072696;28;20463;-79
2022/08/05 04:02:14;;;;;;;25.08;11.45;;;;;;;17.71;100.00;101165.06;5073902;28;20924;-80
2022/08/05 04:04:41;;;;;;;18.98;11.07;;;;;;;17.71;100.00;101159.53;5079443;28;20032;-80
2022/08/05 04:07:09;;;;;;;31.63;10.93;;;;;;;17.69;100.00;101151.38;5056681;28;20404;-79
2022/08/05 04:09:39;;;;;;;25.60;11.75;;;;;;;17.60;100.00;101146.81;5071984;28;20032;-76
2022/08/05 04:12:06;;;;;;;19.77;9.77;;;;;;;17.37;100.00;101150.09;5074826;28;20028;-79
2022/08/05 04:14:33;;;;;;;26.70;12.70;;;;;;;17.34;100.00;101155.94;5079580;28;20051;-80
2022/08/05 04:17:00;;;;;;;26.02;12.80;;;;;;;17.33;100.00;101150.56;5076840;28;20029;-78
2022/08/05 04:19:29;;;;;;;26.90;13.00;;;;;;;17.21;100.00;101159.09;5088653;28;20107;-80
2022/08/05 04:22:00;;;;;;;23.45;13.18;;;;;;;17.09;100.00;101164.00;5062876;28;20033;-79
2022/08/05 04:24:25;;;;;;;25.20;13.52;;;;;;;17.14;100.00;101169.06;5078557;28;20025;-79
2022/08/05 04:26:51;;;;;;;25.85;13.27;;;;;;;17.06;100.00;101156.00;5076477;28;20052;-77
2022/08/05 04:29:17;;;;;;;20.30;11.38;;;;;;;16.93;100.00;101163.81;5055144;28;20036;-77
2022/08/05 04:31:44;;;;;;;21.48;12.75;;;;;;;16.98;100.00;101166.97;5073601;28;20472;-77
2022/08/05 04:34:11;;;;;;;18.02;10.52;;;;;;;16.96;100.00;101169.03;5055902;28;20032;-77
2022/08/05 04:36:37;;;;;;;24.85;10.40;;;;;;;16.84;100.00;101168.38;5074262;28;20033;-77
2022/08/05 04:39:04;;;;;;;22.80;10.82;;;;;;;16.78;100.00;101159.81;5075832;28;20127;-76
2022/08/05 04:41:31;;;;;;;23.95;11.38;;;;;;;16.81;100.00;101152.06;5094225;28;20036;-77
2022/08/05 04:43:58;;;;;;;23.48;10.43;;;;;;;16.74;100.00;101150.94;5075825;28;20039;-77
2022/08/05 04:46:23;;;;;;;22.17;10.73;;;;;;;16.70;100.00;101155.91;5039963;28;20032;-77
2022/08/05 04:48:49;;;;;;;22.48;10.13;;;;;;;16.75;100.00;101149.06;5076179;28;20091;-76
2022/08/05 04:51:16;;;;;;;26.77;12.27;;;;;;;16.82;100.00;101170.41;5040797;28;20391;-75
2022/08/05 04:53:42;;;;;;;20.80;12.30;;;;;;;16.79;100.00;101176.25;5093166;28;20048;-76
2022/08/05 04:56:08;;;;;;;24.35;10.20;;;;;;;16.78;100.00;101168.13;5077345;28;20115;-77
2022/08/05 04:58:38;;;;;;;22.17;10.98;;;;;;;16.71;100.00;101165.09;5060509;28;20081;-76
2022/08/05 05:01:03;;;;;;;24.20;11.23;;;;;;;16.75;100.00;101169.28;5070789;28;20047;-76
2022/08/05 05:03:29;;;;;;;21.17;11.38;;;;;;;16.71;100.00;101174.25;5075817;28;20107;-78
2022/08/05 05:05:56;;;;;;;25.35;13.20;;;;;;;16.81;100.00;101176.97;5078379;28;20119;-80
2022/08/05 05:08:22;;;;;;;31.10;14.07;;;;;;;16.77;100.00;101183.81;5061462;28;20054;-79
2022/08/05 05:10:47;;;;;;;20.50;12.07;;;;;;;16.77;100.00;101181.03;5034356;28;20032;-79
2022/08/05 05:13:17;;;;;;;25.15;13.65;;;;;;;16.75;100.00;101182.25;5077839;28;20135;-79
2022/08/05 05:15:44;;;;;;;23.35;13.02;;;;;;;16.79;100.00;101169.84;5059852;28;20052;-79
2022/08/05 05:18:13;;;;;;;22.08;13.13;;;;;;;16.70;100.00;101175.25;5076012;28;20128;-79
2022/08/05 05:20:41;;;;;;;32.05;14.88;;;;;;;16.79;100.00;101176.25;5060308;28;20447;-79
2022/08/05 05:23:08;;;;;;;28.70;12.82;;;;;;;16.65;100.00;101177.63;5063210;28;20035;-79
2022/08/05 05:25:37;;;;;;;23.13;12.90;;;;;;;16.76;100.00;101189.50;5072214;28;20027;-79
2022/08/05 05:28:04;;;;;;;32.58;15.10;;;;;;;16.79;100.00;101184.56;5063033;28;20047;-79
2022/08/05 05:30:30;;;;;;;36.40;15.30;;;;;;;16.79;100.00;101169.84;5095675;28;20040;-79
2022/08/05 05:32:56;;;;;;;27.75;14.98;;;;;;;16.73;100.00;101172.19;5079463;28;20074;-78
2022/08/05 05:35:23;;;;;;;29.75;14.18;;;;;;;16.66;100.00;101184.00;5079007;28;20070;-78
2022/08/05 05:37:53;;;;;;;27.73;13.77;;;;;;;16.59;100.00;101180.13;5061749;28;20028;-78
2022/08/05 05:40:22;;;;;;;31.58;14.50;;;;;;;16.63;100.00;101189.88;5074297;28;20112;-79
2022/08/05 05:42:49;;;;;;;27.92;16.50;;;;;;;16.61;100.00;101190.03;5074724;28;20032;-79
2022/08/05 05:45:15;;;;;;;33.63;16.95;;;;;;;16.64;100.00;101180.53;5054012;28;20060;-78
2022/08/05 05:47:43;;;;;;;32.20;15.82;;;;;;;16.56;100.00;101192.38;5077631;28;20361;-79
2022/08/05 05:50:10;;;;;;;34.85;15.23;;;;;;;16.70;100.00;101202.91;5073747;28;20033;-78
2022/08/05 05:52:38;;;;;;;31.60;16.50;;;;;;;16.70;100.00;101207.59;5078457;28;20048;-78
2022/08/05 05:55:10;;;;;;;31.65;16.60;;;;;;;16.73;100.00;101216.44;5058183;28;20025;-78
2022/08/05 05:57:38;;;;;;;39.73;17.63;;;;;;;16.77;100.00;101217.00;5074825;28;20020;-78
2022/08/05 06:00:05;;;;;;;35.55;15.32;;;;;;;16.70;100.00;101224.19;5074594;28;20927;-79
2022/08/05 06:02:31;;;;;;;23.73;13.00;;;;;;;16.68;100.00;101213.25;5074390;28;20112;-78
2022/08/05 06:04:56;;;;;;;34.35;16.58;;;;;;;16.76;100.00;101200.56;5071795;28;20097;-78
2022/08/05 06:07:23;;;;;;;26.67;13.50;;;;;;;16.74;100.00;101200.72;5054778;28;20135;-78
2022/08/05 06:09:49;;;;;;;28.17;14.82;;;;;;;16.76;100.00;101204.22;5073896;28;20408;-77
2022/08/05 06:12:15;;;;;;;25.85;14.95;;;;;;;16.78;100.00;101198.53;5074069;28;20037;-76
2022/08/05 06:14:43;;;;;;;28.77;13.85;;;;;;;16.72;100.00;101203.66;5071100;28;20083;-77
2022/08/05 06:17:10;;;;;;;28.65;15.00;;;;;;;16.64;100.00;101213.72;5054253;28;20052;-77
2022/08/05 06:19:35;;;;;;;26.05;13.65;;;;;;;16.65;100.00;101213.56;5074073;28;20117;-76
2022/08/05 06:22:06;;;;;;;28.92;14.85;;;;;;;16.68;100.00;101210.50;5072790;28;20132;-77
2022/08/05 06:24:32;;;;;;;23.45;12.63;;;;;;;16.67;100.00;101219.81;5074347;28;20032;-77
2022/08/05 06:26:59;;;;;;;28.77;13.38;;;;;;;16.61;100.00;101225.97;5074491;28;20470;-77
2022/08/05 06:29:24;;;;;;;27.30;12.35;;;;;;;16.59;100.00;101232.66;5073962;28;20039;-77
2022/08/05 06:31:52;;;;;;;25.30;14.02;;;;;;;16.71;100.00;101237.00;5076199;28;20060;-77
2022/08/05 06:34:18;;;;;;;25.05;13.77;;;;;;;16.69;100.00;101237.13;5074977;28;20063;-78
2022/08/05 06:36:43;;;;;;;20.77;12.25;;;;;;;16.76;100.00;101244.81;5077182;28;20037;-77
2022/08/05 06:39:09;;;;;;;32.33;13.27;;;;;;;16.78;100.00;101240.88;5059265;28;20048;-77
2022/08/05 06:41:35;;;;;;;27.13;12.93;;;;;;;16.85;100.00;101233.72;5059512;28;20480;-76
2022/08/05 06:44:04;;;;;;;23.38;13.80;;;;;;;16.87;100.00;101230.81;5076010;28;20025;-77
2022/08/05 06:46:32;;;;;;;23.00;12.18;;;;;;;16.95;100.00;101232.81;5075707;28;20056;-77
2022/08/05 06:48:58;;;;;;;27.08;12.55;;;;;;;16.91;100.00;101251.63;5075740;28;20060;-76
2022/08/05 06:51:24;;;;;;;18.70;12.23;;;;;;;17.08;100.00;101250.78;5076585;28;20041;-78
2022/08/05 06:53:53;;;;;;;25.42;13.10;;;;;;;17.13;100.00;101252.22;5077960;28;20478;-77
2022/08/05 06:56:19;;;;;;;26.27;12.40;;;;;;;17.11;100.00;101251.53;5076640;28;20033;-77
2022/08/05 06:58:44;;;;;;;17.92;10.90;;;;;;;17.25;100.00;101254.63;5039900;28;20171;-77
2022/08/05 07:01:12;;;;;;;32.03;12.77;;;;;;;17.24;100.00;101255.66;5066596;28;20056;-77
2022/08/05 07:03:38;;;;;;;30.95;12.95;;;;;;;17.24;100.00;101263.09;5076468;28;20036;-78
2022/08/05 07:06:04;;;;;;;22.05;11.30;;;;;;;17.33;100.00;101272.34;5077260;28;20534;-76
2022/08/05 07:08:33;;;;;;;22.70;11.13;;;;;;;17.33;100.00;101275.13;5077389;28;20074;-77
2022/08/05 07:10:58;;;;;;;18.73;10.63;;;;;;;17.42;100.00;101274.19;5059501;28;20040;-76
2022/08/05 07:18:56;;;;;;;20.08;9.93;;;;;;;17.46;100.00;101281.13;5079435;28;20040;-77
2022/08/05 07:21:22;;;;;;;18.98;10.40;;;;;;;17.42;100.00;101282.50;5079249;28;20044;-78
2022/08/05 07:23:48;;;;;;;19.58;11.43;;;;;;;17.51;100.00;101276.03;5078929;28;20036;-76
2022/08/05 07:26:13;;;;;;;25.15;12.52;;;;;;;17.60;100.00;101290.81;5078827;28;20099;-76
2022/08/05 07:28:41;;;;;;;19.95;11.20;;;;;;;17.61;100.00;101292.53;5076067;28;20535;-77
2022/08/05 07:31:10;;;;;;;17.60;11.45;;;;;;;17.71;100.00;101298.91;5080007;28;20032;-78
2022/08/05 07:33:35;;;;;;;26.52;12.63;;;;;;;17.76;100.00;101295.66;5050752;28;20128;-77
2022/08/05 07:36:01;;;;;;;17.50;11.77;;;;;;;17.90;100.00;101291.50;5058422;28;20037;-76
2022/08/05 07:38:27;;;;;;;19.65;11.70;;;;;;;17.83;100.00;101300.41;5062917;28;20090;-77
2022/08/05 07:40:53;;;;;;;24.05;13.10;;;;;;;18.02;100.00;101298.53;5065911;28;20052;-78
2022/08/05 07:43:19;;;;;;;23.15;12.88;;;;;;;18.05;100.00;101308.44;5081186;28;20553;-78
2022/08/05 07:45:47;;;;;;;21.48;13.30;;;;;;;18.16;100.00;101306.28;5077782;28;20038;-78
2022/08/05 07:48:13;;;;;;;20.98;14.15;;;;;;;18.44;100.00;101308.06;5086113;28;20026;-78
2022/08/05 07:50:39;;;;;;;26.38;13.93;;;;;;;19.07;100.00;101307.78;5066230;28;20036;-78
2022/08/05 07:53:05;;;;;;;24.15;13.02;;;;;;;19.09;100.00;101314.03;5066207;28;20103;-79
2022/08/05 07:55:30;;;;;;;25.88;14.55;;;;;;;18.99;100.00;101310.53;5049264;28;20067;-78
2022/08/05 07:57:57;;;;;;;19.40;12.63;;;;;;;18.75;100.00;101316.75;5082465;28;20032;-78
2022/08/05 08:00:27;;;;;;;24.33;15.07;;;;;;;18.69;100.00;101322.94;5100813;28;20031;-78
2022/08/05 08:02:53;;;;;;;22.10;14.30;;;;;;;18.91;100.00;101333.53;5113670;28;20106;-78
2022/08/05 08:05:19;;;;;;;22.08;13.52;;;;;;;18.95;100.00;101333.22;5086333;28;20035;-79
2022/08/05 08:07:44;;;;;;;27.60;14.02;;;;;;;18.95;100.00;101331.28;5103026;28;20833;-78
2022/08/05 08:10:14;;;;;;;18.77;13.13;;;;;;;19.10;100.00;101331.53;5090022;28;20055;-79
2022/08/05 08:12:41;;;;;;;29.73;13.20;;;;;;;19.10;100.00;101338.00;5103812;28;20027;-79
2022/08/05 08:15:15;;;;;;;18.88;12.82;;;;;;;19.12;100.00;101342.47;5122388;28;20505;-79
2022/08/05 08:17:41;;;;;;;21.27;15.43;;;;;;;19.12;100.00;101343.38;5088517;28;20043;-79
2022/08/05 08:20:07;;;;;;;18.33;12.85;;;;;;;19.09;100.00;101347.34;5098350;28;20085;-79
2022/08/05 08:22:32;;;;;;;23.52;13.07;;;;;;;19.18;100.00;101345.47;5090520;28;20039;-79
2022/08/05 08:24:59;;;;;;;22.63;14.75;;;;;;;19.14;100.00;101346.84;5095802;28;20033;-79
2022/08/05 08:27:25;;;;;;;29.67;14.50;;;;;;;19.18;100.00;101344.59;5073026;28;20127;-79
2022/08/05 08:29:52;;;;;;;24.90;15.82;;;;;;;19.48;100.00;101348.75;5048630;28;20044;-80
2022/08/05 08:32:18;;;;;;;20.98;14.50;;;;;;;19.56;100.00;101348.78;5061144;28;20116;-79
2022/08/05 08:34:47;;;;;;;20.77;14.40;;;;;;;19.71;100.00;101350.88;5044949;28;20826;-78
2022/08/05 08:37:16;;;;;;;26.58;14.68;;;;;;;19.44;100.00;101355.66;5065227;28;20401;-77
2022/08/05 08:39:41;;;;;;;22.92;12.80;;;;;;;19.47;100.00;101358.09;5064286;28;20048;-80
2022/08/05 08:42:09;;;;;;;20.17;12.80;;;;;;;19.51;100.00;101361.41;5048940;28;20044;-79
2022/08/05 08:44:38;;;;;;;20.95;12.60;;;;;;;19.50;100.00;101357.78;5080771;28;20031;-80
2022/08/05 08:47:06;;;;;;;18.20;11.57;;;;;;;19.41;100.00;101368.00;5064635;28;20487;-80
2022/08/05 08:49:38;;;;;;;21.83;12.88;;;;;;;19.33;100.00;101370.69;5081924;28;20028;-80
2022/08/05 08:52:12;;;;;;;21.48;14.65;;;;;;;19.15;100.00;101372.69;5080806;28;20387;-80
2022/08/05 08:54:38;;;;;;;25.38;13.05;;;;;;;19.28;100.00;101374.00;5081276;28;20115;-80
2022/08/05 08:57:06;;;;;;;19.13;12.68;;;;;;;19.40;100.00;101376.47;5048433;28;20075;-80
2022/08/05 08:59:33;;;;;;;17.30;12.70;;;;;;;20.19;100.00;101382.63;5080848;28;20510;-79
2022/08/05 09:02:03;;;;;;;13.65;10.23;;;;;;;20.83;100.00;101393.97;5081105;28;20487;-80
2022/08/05 09:04:28;;;;;;;12.35;7.45;;;;;;;20.46;100.00;101391.69;5080242;28;20027;-80
2022/08/05 09:06:54;;;;;;;9.38;5.35;;;;;;;20.77;100.00;101404.94;5099166;28;20036;-80
2022/08/05 09:09:19;;;;;;;10.25;6.55;;;;;;;20.45;100.00;101407.53;5064216;28;20031;-79
2022/08/05 09:11:45;;;;;;;12.27;6.00;;;;;;;20.13;100.00;101406.41;5061499;28;20056;-81
2022/08/05 09:14:15;;;;;;;15.05;5.85;;;;;;;20.06;100.00;101410.94;5032038;28;20399;-80
2022/08/05 09:16:44;;;;;;;11.00;3.75;;;;;;;20.14;100.00;101424.00;5081074;28;20382;-80
2022/08/05 09:19:10;;;;;;;8.63;3.42;;;;;;;19.92;100.00;101423.59;5059664;28;20036;-79
2022/08/05 09:21:38;;;;;;;7.22;3.03;;;;;;;20.67;100.00;101419.03;5061024;28;20392;-78
2022/08/05 09:24:07;;;;;;;5.97;2.85;;;;;;;21.56;100.00;101430.19;5060804;28;20475;-79
2022/08/05 09:26:34;;;;;;;7.40;2.30;;;;;;;21.28;100.00;101422.25;5094571;28;20020;-79
2022/08/05 09:29:04;;;;;;;6.13;2.30;;;;;;;21.58;100.00;101431.78;5080736;28;20031;-80
2022/08/05 09:31:33;;;;;;;6.50;2.53;;;;;;;21.61;100.00;101424.94;5065301;28;20020;-80
2022/08/05 09:34:04;;;;;;;5.07;1.90;;;;;;;21.77;100.00;101427.66;5078734;28;20020;-79
2022/08/05 09:36:48;;;;;;;5.53;1.80;;;;;;;22.11;100.00;101428.38;5066147;28;20063;-79
2022/08/05 09:39:16;;;;;;;7.05;2.03;;;;;;;21.58;100.00;101439.25;5088315;28;20104;-79
2022/08/05 09:41:59;;;;;;;6.10;1.83;;;;;;;21.72;100.00;101444.06;5086970;28;20450;-79
2022/08/05 09:44:44;;;;;;;7.43;1.65;;;;;;;22.23;100.00;101449.22;5079952;28;20024;-80
2022/08/05 09:47:12;;;;;;;6.07;1.70;;;;;;;22.47;100.00;101445.44;5072952;28;20036;-79
2022/08/05 09:49:43;;;;;;;9.25;2.00;;;;;;;22.55;100.00;101445.38;5080716;28;20027;-80
2022/08/05 09:52:17;;;;;;;9.90;1.45;;;;;;;22.27;100.00;101444.13;5098032;28;20032;-79
2022/08/05 09:54:53;;;;;;;4.60;1.73;;;;;;;22.83;100.00;101441.13;5064201;28;20123;-79
2022/08/05 09:57:45;;;;;;;5.65;1.60;;;;;;;22.79;100.00;101445.34;5098329;28;20036;-78
2022/08/05 10:00:14;;;;;;;8.98;1.80;;;;;;;22.86;100.00;101443.56;5098788;28;20472;-79
2022/08/05 10:02:43;;;;;;;4.75;1.60;;;;;;;23.01;100.00;101449.19;5059499;28;20510;-79
2022/08/05 10:05:15;;;;;;;6.03;1.73;;;;;;;22.27;100.00;101445.00;5069942;28;20039;-79
2022/08/05 10:07:53;;;;;;;3.60;1.70;;;;;;;22.86;100.00;101451.94;5064017;28;20095;-80
2022/08/05 10:10:30;;;;;;;4.55;1.20;;;;;;;23.34;100.00;101455.31;5077177;28;20468;-79
2022/08/05 10:12:59;;;;;;;4.45;1.60;;;;;;;23.17;100.00;101450.97;5064586;28;20028;-78
2022/08/05 10:15:28;;;;;;;4.22;1.30;;;;;;;23.60;100.00;101448.41;5099240;28;20098;-80
2022/08/05 10:18:09;;;;;;;5.72;1.30;;;;;;;24.00;100.00;101449.81;5063714;28;20020;-79
2022/08/05 10:20:48;;;;;;;4.07;1.95;;;;;;;22.94;100.00;101440.69;5079521;28;20116;-79
2022/08/05 10:23:21;;;;;;;5.43;1.52;;;;;;;23.48;100.00;101445.19;5080221;28;20411;-79
2022/08/05 10:25:47;;;;;;;5.75;1.50;;;;;;;22.97;100.00;101445.88;5096863;28;20391;-78
2022/08/05 10:28:16;;;;;;;2.50;1.35;;;;;;;23.83;100.00;101453.91;5081370;28;20043;-80
2022/08/05 10:30:44;;;;;;;3.13;1.45;;;;;;;24.23;100.00;101462.78;5098699;28;20056;-80
2022/08/05 10:33:10;;;;;;;7.93;1.55;;;;;;;24.44;100.00;101458.31;5076845;28;20101;-78
2022/08/05 10:35:36;;;;;;;9.23;2.00;;;;;;;23.52;100.00;101466.13;5046375;28;20025;-79
2022/08/05 10:38:06;;;;;;;6.22;1.75;;;;;;;22.35;100.00;101455.25;5098039;28;20028;-79
2022/08/05 10:40:53;;;;;;;5.18;1.33;;;;;;;21.60;100.00;101473.41;5058007;28;20049;-79
2022/08/05 10:43:46;;;;;;;7.80;1.38;;;;;;;21.40;100.00;101470.97;5079405;28;20034;-78
2022/08/05 10:46:16;;;;;;;5.43;1.63;;;;;;;21.11;100.00;101480.75;5078906;28;20040;-79
2022/08/05 10:48:46;;;;;;;6.32;1.67;;;;;;;20.89;100.00;101481.47;5079096;28;20057;-81
2022/08/05 10:51:16;;;;;;;5.47;1.55;;;;;;;21.24;100.00;101480.22;5096877;28;20059;-80
2022/08/05 10:53:49;;;;;;;10.15;1.77;;;;;;;20.97;100.00;101497.31;5095933;28;20061;-79
2022/08/05 10:56:17;;;;;;;4.70;1.40;;;;;;;21.07;100.00;101492.41;5079200;28;20040;-79
2022/08/05 10:58:53;;;;;;;5.57;1.40;;;;;;;21.10;100.00;101490.19;5077841;28;20032;-79
2022/08/05 11:01:35;;;;;;;2.13;0.93;;;;;;;21.12;100.00;101481.66;5073596;28;20040;-78
2022/08/05 11:04:16;;;;;;;4.40;1.00;;;;;;;21.67;100.00;101485.56;5059457;28;20484;-78
2022/08/05 11:07:03;;;;;;;3.08;0.90;;;;;;;22.57;100.00;101482.31;5070413;28;20036;-80
2022/08/05 11:09:49;;;;;;;3.42;1.10;;;;;;;22.98;100.00;101483.06;5096495;28;20040;-79
2022/08/05 11:12:35;;;;;;;3.33;1.02;;;;;;;23.93;100.00;101489.97;5066398;28;20029;-79
2022/08/05 11:15:05;;;;;;;5.82;1.38;;;;;;;23.89;100.00;101483.91;5077596;28;20107;-79
2022/08/05 11:17:37;;;;;;;6.10;1.30;;;;;;;23.38;100.00;101492.13;5099772;28;20055;-78
2022/08/05 11:20:08;;;;;;;4.25;1.05;;;;;;;23.32;100.00;101482.59;5082895;28;20062;-78